Time;durP1;ratioP1;P1;durP2;ratioP2;P2;SDS_P1;SDS_P2;PMS_P1;PMS_P2;Temp;Humidity;BMP_temperature;BMP_pressure;BME280_temperature;BME280_humidity;BME280_pressure;Samples;Min_cycle;Max_cycle;Signal;HPM_P1;HPM_P2
2023/03/13 00:01:36;;;;;;;;;;;;;;;7.61;72.74;97502.75;5085385;28;19928;-56
2023/03/13 00:04:04;;;;;;;;;;;;;;;7.61;72.70;97494.66;5094377;28;20404;-56
2023/03/13 00:06:32;;;;;;;;;;;;;;;7.55;72.84;97493.94;5091521;28;19930;-57
2023/03/13 00:09:00;;;;;;;;;;;;;;;7.60;72.48;97488.44;5090628;28;19924;-57
2023/03/13 00:11:28;;;;;;;;;;;;;;;7.45;72.76;97475.25;5101740;28;19931;-56
2023/03/13 00:13:58;;;;;;;;;;;;;;;7.43;73.06;97471.25;5106198;28;19942;-57
2023/03/13 00:16:26;;;;;;;;;;;;;;;7.53;72.64;97460.22;5091387;28;20634;-57
2023/03/13 00:18:54;;;;;;;;;;;;;;;7.51;72.49;97465.13;5083330;28;19951;-57
2023/03/13 00:21:23;;;;;;;;;;;;;;;7.47;72.48;97458.75;5085250;28;19949;-58
2023/03/13 00:23:51;;;;;;;;;;;;;;;7.45;72.80;97453.63;5092159;28;20015;-56
2023/03/13 00:26:19;;;;;;;;;;;;;;;7.46;72.95;97462.56;5088990;28;19942;-56
2023/03/13 00:28:47;;;;;;;;;;;;;;;7.42;73.19;97456.13;5080657;28;20330;-56
2023/03/13 00:31:17;;;;;;;;;;;;;;;7.42;72.79;97458.84;5057806;28;19955;-59
2023/03/13 00:33:45;;;;;;;;;;;;;;;7.39;72.81;97448.63;5081780;28;20414;-58
2023/03/13 00:36:14;;;;;;;;;;;;;;;7.41;72.81;97457.25;5068256;28;20688;-56
2023/03/13 00:38:42;;;;;;;;;;;;;;;7.41;72.56;97449.94;5089967;28;19935;-56
2023/03/13 00:41:11;;;;;;;;;;;;;;;7.42;72.56;97453.44;5082587;28;19945;-57
2023/03/13 00:43:39;;;;;;;;;;;;;;;7.44;72.75;97440.41;5087685;28;19932;-57
2023/03/13 00:46:07;;;;;;;;;;;;;;;7.40;73.02;97447.50;5081038;28;19928;-56
2023/03/13 00:48:36;;;;;;;;;;;;;;;7.37;72.74;97450.84;5108034;28;20467;-57
2023/03/13 00:51:05;;;;;;;;;;;;;;;7.45;72.57;97452.81;5083210;28;19942;-56
2023/03/13 00:53:33;;;;;;;;;;;;;;;7.37;72.50;97456.25;5088512;28;19939;-56
2023/03/13 00:56:01;;;;;;;;;;;;;;;7.40;72.75;97455.63;5103125;28;20272;-56
2023/03/13 00:58:31;;;;;;;;;;;;;;;7.39;72.55;97464.84;5087574;28;19982;-57
2023/03/13 01:01:06;;;;;;;;;;;;;;;7.39;72.57;97452.13;5086676;28;19961;-57
2023/03/13 01:03:34;;;;;;;;;;;;;;;7.39;71.97;97445.91;5082620;28;20038;-58
2023/03/13 01:06:04;;;;;;;;;;;;;;;7.39;72.00;97437.81;5080493;28;19999;-56
2023/03/13 01:08:32;;;;;;;;;;;;;;;7.35;72.51;97438.44;5080073;28;19951;-57
2023/03/13 01:11:01;;;;;;;;;;;;;;;7.48;71.83;97434.09;5079868;28;19946;-57
2023/03/13 01:13:30;;;;;;;;;;;;;;;7.44;71.99;97432.31;5076617;28;19939;-57
2023/03/13 01:15:57;;;;;;;;;;;;;;;7.45;71.54;97429.28;5082708;28;20077;-59
2023/03/13 01:18:25;;;;;;;;;;;;;;;7.39;71.88;97430.50;5094524;28;19946;-57
2023/03/13 01:20:55;;;;;;;;;;;;;;;7.38;71.98;97426.22;5088108;28;19938;-57
2023/03/13 01:23:25;;;;;;;;;;;;;;;7.39;71.66;97427.00;5105706;28;19941;-57
2023/03/13 01:25:53;;;;;;;;;;;;;;;7.41;71.83;97419.41;5101823;28;19945;-57
2023/03/13 01:28:21;;;;;;;;;;;;;;;7.41;71.21;97416.72;5085248;28;19950;-57
2023/03/13 01:30:49;;;;;;;;;;;;;;;7.45;71.52;97414.97;5088902;28;19954;-56
2023/03/13 01:33:18;;;;;;;;;;;;;;;7.46;71.33;97416.59;5085860;28;19991;-56
2023/03/13 01:35:47;;;;;;;;;;;;;;;7.43;71.38;97409.09;5081706;28;19954;-57
2023/03/13 01:38:14;;;;;;;;;;;;;;;7.46;71.25;97403.09;5098448;28;20396;-57
2023/03/13 01:40:45;;;;;;;;;;;;;;;7.43;71.15;97404.47;5079662;28;19955;-57
2023/03/13 01:43:17;;;;;;;;;;;;;;;7.36;71.36;97396.00;5079824;28;19942;-57
2023/03/13 01:46:01;;;;;;;;;;;;;;;7.35;71.40;97397.91;5082530;28;19966;-56
2023/03/13 01:48:42;;;;;;;;;;;;;;;7.27;71.83;97384.28;5101513;28;19950;-56
2023/03/13 01:51:11;;;;;;;;;;;;;;;7.24;72.30;97391.09;5102859;28;19935;-58
2023/03/13 01:53:41;;;;;;;;;;;;;;;7.25;72.09;97387.31;5097174;28;19980;-57
2023/03/13 01:56:11;;;;;;;;;;;;;;;7.30;71.83;97392.59;5094918;28;19987;-57
2023/03/13 01:58:39;;;;;;;;;;;;;;;7.31;71.91;97398.81;5088453;28;19960;-57
2023/03/13 02:01:09;;;;;;;;;;;;;;;7.26;71.85;97397.00;5078148;28;19951;-57
2023/03/13 02:03:37;;;;;;;;;;;;;;;7.29;72.13;97390.19;5088172;28;19938;-56
2023/03/13 02:06:05;;;;;;;;;;;;;;;7.43;71.42;97380.16;5070170;28;19939;-56
2023/03/13 02:08:36;;;;;;;;;;;;;;;7.43;71.72;97379.38;5078457;28;19961;-57
2023/03/13 02:11:05;;;;;;;;;;;;;;;7.43;71.28;97376.66;5067426;28;19981;-56
2023/03/13 02:13:34;;;;;;;;;;;;;;;7.40;71.76;97369.16;5073644;28;20293;-57
2023/03/13 02:16:02;;;;;;;;;;;;;;;7.54;71.27;97367.22;5078510;28;19950;-57
2023/03/13 02:18:31;;;;;;;;;;;;;;;7.57;70.87;97367.41;5088738;28;20436;-56
2023/03/13 02:21:00;;;;;;;;;;;;;;;7.49;71.65;97353.81;5080350;28;19931;-62
2023/03/13 02:23:29;;;;;;;;;;;;;;;7.50;71.40;97352.72;5075376;28;19935;-56
2023/03/13 02:26:01;;;;;;;;;;;;;;;7.52;71.57;97351.31;5078127;28;20354;-57
2023/03/13 02:28:34;;;;;;;;;;;;;;;7.49;71.83;97343.00;5084446;28;19997;-59
2023/03/13 02:31:05;;;;;;;;;;;;;;;7.46;72.02;97347.13;5088840;28;20457;-58
2023/03/13 02:33:35;;;;;;;;;;;;;;;7.44;72.24;97345.81;5071476;28;20390;-57
2023/03/13 02:36:03;;;;;;;;;;;;;;;7.49;72.17;97345.72;5067189;28;19946;-56
2023/03/13 02:38:31;;;;;;;;;;;;;;;7.46;71.85;97343.63;5090433;28;19933;-57
2023/03/13 02:41:04;;;;;;;;;;;;;;;7.43;71.97;97336.13;5077365;28;19943;-56
2023/03/13 02:43:33;;;;;;;;;;;;;;;7.55;71.64;97328.25;5069470;28;19984;-56
2023/03/13 02:46:02;;;;;;;;;;;;;;;7.52;71.87;97335.09;5059787;28;20035;-57
2023/03/13 02:48:33;;;;;;;;;;;;;;;7.45;72.07;97329.28;5071841;28;19989;-57
2023/03/13 02:51:01;;;;;;;;;;;;;;;7.42;72.31;97327.22;5066896;28;19980;-64
2023/03/13 02:53:29;;;;;;;;;;;;;;;7.52;72.14;97316.19;5067521;28;19969;-57
2023/03/13 02:55:57;;;;;;;;;;;;;;;7.46;72.73;97319.31;5085174;28;19935;-56
2023/03/13 02:58:26;;;;;;;;;;;;;;;7.43;72.70;97314.50;5067044;28;19935;-56
2023/03/13 03:00:54;;;;;;;;;;;;;;;7.52;72.60;97313.47;5084903;28;19954;-56
2023/03/13 03:03:23;;;;;;;;;;;;;;;7.55;72.58;97312.03;5088195;28;20029;-57
2023/03/13 03:05:51;;;;;;;;;;;;;;;7.44;73.15;97307.97;5101296;28;20000;-57
2023/03/13 03:08:18;;;;;;;;;;;;;;;7.45;73.25;97306.88;5075448;28;20437;-57
2023/03/13 03:10:46;;;;;;;;;;;;;;;7.47;73.37;97310.09;5081559;28;19939;-56
2023/03/13 03:13:14;;;;;;;;;;;;;;;7.42;73.41;97302.91;5092493;28;19942;-56
2023/03/13 03:15:45;;;;;;;;;;;;;;;7.42;73.51;97299.41;5059932;28;20039;-57
2023/03/13 03:18:13;;;;;;;;;;;;;;;7.39;73.59;97310.81;5070192;28;19938;-57
2023/03/13 03:20:41;;;;;;;;;;;;;;;7.40;73.36;97304.28;5083944;28;19953;-57
2023/03/13 03:23:09;;;;;;;;;;;;;;;7.42;74.00;97294.00;5070982;28;19935;-56
2023/03/13 03:25:37;;;;;;;;;;;;;;;7.44;73.98;97297.16;5058417;28;19935;-57
2023/03/13 03:28:05;;;;;;;;;;;;;;;7.42;74.14;97297.50;5063003;28;21395;-57
2023/03/13 03:30:34;;;;;;;;;;;;;;;7.46;74.06;97293.06;5058108;28;19984;-59
2023/03/13 03:33:04;;;;;;;;;;;;;;;7.42;74.36;97294.00;5090897;28;20016;-57
2023/03/13 03:35:32;;;;;;;;;;;;;;;7.36;74.44;97282.50;5097676;28;19934;-57
2023/03/13 03:38:00;;;;;;;;;;;;;;;7.38;74.81;97277.56;5079347;28;19949;-58
2023/03/13 03:40:29;;;;;;;;;;;;;;;7.37;74.40;97284.09;5092305;28;20708;-57
2023/03/13 03:42:57;;;;;;;;;;;;;;;7.37;74.99;97283.28;5079367;28;19993;-57
2023/03/13 03:45:24;;;;;;;;;;;;;;;7.41;74.87;97284.28;5074264;28;20384;-56
2023/03/13 03:47:52;;;;;;;;;;;;;;;7.42;74.67;97288.59;5082929;28;19946;-56
2023/03/13 03:50:21;;;;;;;;;;;;;;;7.40;75.03;97283.47;5077356;28;19957;-56
2023/03/13 03:52:56;;;;;;;;;;;;;;;7.44;74.86;97283.66;5089288;28;20411;-57
2023/03/13 03:55:25;;;;;;;;;;;;;;;7.45;74.67;97274.44;5085308;28;19942;-57
2023/03/13 03:57:53;;;;;;;;;;;;;;;7.43;75.07;97272.06;5100096;28;20377;-56
2023/03/13 04:00:41;;;;;;;;;;;;;;;7.40;74.92;97267.25;5076697;28;20312;-58
2023/03/13 04:03:09;;;;;;;;;;;;;;;7.49;74.78;97267.31;5087637;28;19978;-57
2023/03/13 04:05:39;;;;;;;;;;;;;;;7.49;74.61;97251.91;5089737;28;20007;-58
2023/03/13 04:08:06;;;;;;;;;;;;;;;7.49;74.82;97253.81;5089361;28;19935;-57
2023/03/13 04:10:35;;;;;;;;;;;;;;;7.53;74.56;97249.41;5101314;28;19957;-57
2023/03/13 04:13:03;;;;;;;;;;;;;;;7.56;74.34;97248.75;5093081;28;20304;-57
2023/03/13 04:15:32;;;;;;;;;;;;;;;7.56;74.39;97237.94;5082752;28;19946;-57
2023/03/13 04:18:00;;;;;;;;;;;;;;;7.51;74.45;97238.06;5091535;28;19977;-57
2023/03/13 04:20:28;;;;;;;;;;;;;;;7.47;74.52;97234.41;5088014;28;20053;-57
2023/03/13 04:22:57;;;;;;;;;;;;;;;7.55;74.57;97222.84;5095098;28;20003;-57
2023/03/13 04:25:25;;;;;;;;;;;;;;;7.57;74.46;97215.25;5085363;28;19943;-57
2023/03/13 04:27:57;;;;;;;;;;;;;;;7.56;74.42;97206.34;5101744;28;19924;-57
2023/03/13 04:30:29;;;;;;;;;;;;;;;7.52;74.47;97218.06;5084532;28;19928;-58
2023/03/13 04:33:11;;;;;;;;;;;;;;;7.57;74.24;97207.94;5074747;28;19962;-58
2023/03/13 04:36:04;;;;;;;;;;;;;;;7.51;74.30;97208.34;5068641;28;19942;-56
2023/03/13 04:38:55;;;;;;;;;;;;;;;7.57;74.39;97194.41;5067246;28;20293;-57
2023/03/13 04:41:49;;;;;;;;;;;;;;;7.60;74.03;97195.69;5085824;28;19928;-58
2023/03/13 04:44:37;;;;;;;;;;;;;;;7.72;73.84;97193.22;5082090;28;19936;-56
2023/03/13 04:47:40;;;;;;;;;;;;;;;7.65;73.77;97190.16;5096128;28;19928;-58
2023/03/13 04:50:26;;;;;;;;;;;;;;;7.61;74.54;97186.47;5108545;28;19935;-63
2023/03/13 04:53:23;;;;;;;;;;;;;;;7.55;74.82;97182.31;5089236;28;20600;-58
2023/03/13 04:56:10;;;;;;;;;;;;;;;7.63;74.58;97173.47;5102219;28;20397;-57
2023/03/13 04:58:58;;;;;;;;;;;;;;;7.61;74.69;97175.66;5108557;28;20257;-58
2023/03/13 05:01:35;;;;;;;;;;;;;;;7.56;74.63;97192.00;5077504;28;19947;-57
2023/03/13 05:04:16;;;;;;;;;;;;;;;7.62;74.62;97190.78;5089243;28;19924;-57
2023/03/13 05:07:00;;;;;;;;;;;;;;;7.60;75.21;97184.88;5088418;28;19990;-58
2023/03/13 05:09:30;;;;;;;;;;;;;;;7.61;75.31;97181.84;5082092;28;19928;-58
2023/03/13 05:12:18;;;;;;;;;;;;;;;7.62;75.35;97193.50;5085074;28;19981;-57
2023/03/13 05:14:57;;;;;;;;;;;;;;;7.61;75.74;97186.47;5101742;28;19924;-57
2023/03/13 05:17:54;;;;;;;;;;;;;;;7.63;76.04;97189.69;5083189;28;19928;-57
2023/03/13 05:20:40;;;;;;;;;;;;;;;7.65;76.08;97184.75;5085774;28;19929;-59
2023/03/13 05:23:19;;;;;;;;;;;;;;;7.69;76.23;97183.03;5090039;28;19928;-58
2023/03/13 05:26:04;;;;;;;;;;;;;;;7.68;76.66;97178.72;5085072;28;19932;-57
2023/03/13 05:29:00;;;;;;;;;;;;;;;7.68;77.52;97165.22;5085053;28;19928;-57
2023/03/13 05:31:55;;;;;;;;;;;;;;;7.68;77.71;97170.63;5072395;28;19924;-57
2023/03/13 05:34:56;;;;;;;;;;;;;;;7.72;76.93;97163.47;5085776;28;20592;-57
2023/03/13 05:38:02;;;;;;;;;;;;;;;7.63;77.65;97162.66;5048375;28;20305;-57
2023/03/13 05:40:39;;;;;;;;;;;;;;;7.63;77.68;97162.66;5032343;28;20424;-57
2023/03/13 05:43:27;;;;;;;;;;;;;;;7.60;77.95;97158.63;5058242;28;19924;-57
2023/03/13 05:46:26;;;;;;;;;;;;;;;7.64;77.66;97149.91;5060292;28;19932;-58
2023/03/13 05:49:12;;;;;;;;;;;;;;;7.73;77.28;97145.38;5079607;28;19934;-57
2023/03/13 05:52:09;;;;;;;;;;;;;;;7.72;77.36;97139.13;5041470;28;19925;-58
2023/03/13 05:54:52;;;;;;;;;;;;;;;7.78;77.15;97140.63;5089630;28;20010;-57
2023/03/13 05:57:38;;;;;;;;;;;;;;;7.78;77.32;97137.13;5076496;28;19931;-57
2023/03/13 06:00:18;;;;;;;;;;;;;;;7.74;77.73;97136.94;5080377;28;19969;-57
2023/03/13 06:03:25;;;;;;;;;;;;;;;7.67;78.37;97130.34;5080040;28;19973;-55
2023/03/13 06:05:57;;;;;;;;;;;;;;;7.80;78.24;97124.06;5086295;28;19977;-55
2023/03/13 06:08:43;;;;;;;;;;;;;;;7.73;78.87;97124.53;5085125;28;20369;-55
2023/03/13 06:11:12;;;;;;;;;;;;;;;7.92;77.86;97121.56;5097516;28;19925;-55
2023/03/13 06:13:41;;;;;;;;;;;;;;;7.84;78.06;97125.84;5102789;28;19932;-55
2023/03/13 06:16:33;;;;;;;;;;;;;;;7.81;78.48;97125.66;5092165;28;19924;-61
2023/03/13 06:19:15;;;;;;;;;;;;;;;7.96;78.22;97127.16;5084442;28;20373;-55
2023/03/13 06:21:42;;;;;;;;;;;;;;;7.84;78.85;97119.63;5085457;28;20407;-55
2023/03/13 06:24:10;;;;;;;;;;;;;;;7.98;78.69;97112.19;5088680;28;19924;-56
2023/03/13 06:26:38;;;;;;;;;;;;;;;7.99;78.69;97121.94;5084688;28;19931;-58
2023/03/13 06:29:06;;;;;;;;;;;;;;;8.01;78.83;97110.78;5081500;28;19935;-58
2023/03/13 06:31:34;;;;;;;;;;;;;;;8.02;78.54;97121.28;5074636;28;19928;-57
2023/03/13 06:34:02;;;;;;;;;;;;;;;8.02;78.91;97120.50;5081827;28;20444;-57
2023/03/13 06:36:31;;;;;;;;;;;;;;;8.07;78.56;97128.47;5077101;28;19924;-55
2023/03/13 06:38:58;;;;;;;;;;;;;;;8.04;78.97;97112.84;5086274;28;19931;-56
2023/03/13 06:41:26;;;;;;;;;;;;;;;8.09;78.91;97126.22;5104437;28;19928;-55
2023/03/13 06:43:54;;;;;;;;;;;;;;;8.13;78.61;97116.38;5104919;28;20238;-55
2023/03/13 06:46:23;;;;;;;;;;;;;;;8.10;78.59;97117.81;5097405;28;20544;-56
2023/03/13 06:48:51;;;;;;;;;;;;;;;8.14;78.40;97121.47;5102839;28;20437;-57
2023/03/13 06:51:19;;;;;;;;;;;;;;;8.17;78.65;97106.53;5104625;28;20040;-55
2023/03/13 06:53:51;;;;;;;;;;;;;;;8.16;78.57;97114.97;5091220;28;19931;-55
2023/03/13 06:56:20;;;;;;;;;;;;;;;8.20;78.37;97105.09;5098586;28;19928;-56
2023/03/13 06:58:48;;;;;;;;;;;;;;;8.30;78.14;97105.59;5092754;28;19924;-55
2023/03/13 07:01:18;;;;;;;;;;;;;;;8.47;77.10;97101.34;5096980;28;19928;-55
2023/03/13 07:03:46;;;;;;;;;;;;;;;8.37;77.66;97092.44;5098820;28;19934;-57
2023/03/13 07:06:14;;;;;;;;;;;;;;;8.46;77.68;97097.03;5086125;28;19935;-55
2023/03/13 07:08:43;;;;;;;;;;;;;;;8.40;77.46;97099.91;5099189;28;19924;-55
2023/03/13 07:11:13;;;;;;;;;;;;;;;8.48;77.62;97109.16;5103619;28;19951;-56
2023/03/13 07:13:41;;;;;;;;;;;;;;;8.57;77.30;97096.41;5090804;28;19943;-56
2023/03/13 07:16:10;;;;;;;;;;;;;;;8.64;76.68;97095.94;5092892;28;19924;-58
2023/03/13 07:18:38;;;;;;;;;;;;;;;8.56;77.25;97089.41;5099764;28;20276;-56
2023/03/13 07:21:06;;;;;;;;;;;;;;;8.73;76.24;97102.16;5097340;28;19985;-58
2023/03/13 07:23:34;;;;;;;;;;;;;;;8.72;76.22;97094.34;5107679;28;19958;-57
2023/03/13 07:26:02;;;;;;;;;;;;;;;8.74;76.30;97092.13;5105420;28;19958;-55
2023/03/13 07:28:32;;;;;;;;;;;;;;;8.83;76.29;97092.91;5096582;28;20008;-55
2023/03/13 07:31:05;;;;;;;;;;;;;;;8.79;76.31;97106.31;5093975;28;20357;-56
2023/03/13 07:33:33;;;;;;;;;;;;;;;8.92;75.85;97105.34;5113226;28;19959;-57
2023/03/13 07:36:01;;;;;;;;;;;;;;;8.97;75.72;97100.88;5106109;28;20393;-56
2023/03/13 07:38:29;;;;;;;;;;;;;;;8.99;75.48;97104.06;5100392;28;19924;-55
2023/03/13 07:40:57;;;;;;;;;;;;;;;8.96;75.52;97112.84;5095831;28;19977;-56
2023/03/13 07:43:25;;;;;;;;;;;;;;;9.08;75.17;97102.13;5085717;28;20053;-55
2023/03/13 07:45:56;;;;;;;;;;;;;;;9.13;74.86;97110.09;5077271;28;19960;-59
2023/03/13 07:48:24;;;;;;;;;;;;;;;9.17;74.92;97101.00;5101689;28;19992;-59
2023/03/13 07:50:51;;;;;;;;;;;;;;;9.31;74.47;97092.69;5095378;28;19970;-56
2023/03/13 07:53:21;;;;;;;;;;;;;;;9.34;74.11;97089.34;5110165;28;20280;-55
2023/03/13 07:55:52;;;;;;;;;;;;;;;9.45;74.05;97085.16;5109148;28;19927;-56
2023/03/13 07:58:20;;;;;;;;;;;;;;;9.39;74.57;97081.03;5096116;28;19947;-55
2023/03/13 08:00:48;;;;;;;;;;;;;;;9.48;74.31;97072.06;5104676;28;19958;-56
2023/03/13 08:03:17;;;;;;;;;;;;;;;9.69;73.83;97071.03;5090305;28;20399;-57
2023/03/13 08:05:45;;;;;;;;;;;;;;;9.70;73.21;97064.50;5089741;28;19977;-56
2023/03/13 08:08:13;;;;;;;;;;;;;;;9.73;72.81;97079.31;5086189;28;19961;-56
2023/03/13 08:10:41;;;;;;;;;;;;;;;9.69;73.37;97070.22;5086361;28;19938;-56
2023/03/13 08:13:08;;;;;;;;;;;;;;;9.84;73.32;97066.97;5107753;28;19957;-56
2023/03/13 08:15:36;;;;;;;;;;;;;;;9.92;72.37;97070.78;5106801;28;19930;-56
2023/03/13 08:18:04;;;;;;;;;;;;;;;10.03;71.44;97073.91;5101198;28;19924;-55
2023/03/13 08:20:34;;;;;;;;;;;;;;;10.01;72.19;97074.22;5099626;28;19924;-55
2023/03/13 08:23:02;;;;;;;;;;;;;;;10.09;71.64;97078.81;5111797;28;19967;-55
2023/03/13 08:25:30;;;;;;;;;;;;;;;10.22;70.89;97082.41;5093405;28;19973;-60
2023/03/13 08:27:59;;;;;;;;;;;;;;;10.08;71.35;97077.22;5095785;28;19931;-56
2023/03/13 08:30:29;;;;;;;;;;;;;;;10.17;71.37;97067.13;5092939;28;19966;-62
2023/03/13 08:32:57;;;;;;;;;;;;;;;10.29;71.38;97068.34;5110643;28;19928;-58
2023/03/13 08:35:25;;;;;;;;;;;;;;;10.33;70.71;97059.19;5109940;28;20021;-58
2023/03/13 08:37:54;;;;;;;;;;;;;;;10.41;70.89;97066.50;5107019;28;19924;-55
2023/03/13 08:40:23;;;;;;;;;;;;;;;10.47;70.81;97067.09;5112129;28;19954;-55
2023/03/13 08:42:51;;;;;;;;;;;;;;;10.49;70.78;97062.13;5082527;28;19939;-55
2023/03/13 08:45:19;;;;;;;;;;;;;;;10.51;70.76;97059.09;5105260;28;20301;-55
2023/03/13 08:47:47;;;;;;;;;;;;;;;10.55;70.95;97060.03;5107973;28;19924;-56
2023/03/13 08:50:15;;;;;;;;;;;;;;;10.65;70.28;97054.97;5103972;28;19935;-55
2023/03/13 08:52:43;;;;;;;;;;;;;;;10.68;70.40;97059.75;5103513;28;19931;-56
2023/03/13 08:55:13;;;;;;;;;;;;;;;10.67;70.57;97057.34;5106443;28;19942;-56
2023/03/13 08:57:41;;;;;;;;;;;;;;;10.70;71.07;97056.69;5098345;28;19924;-55
2023/03/13 09:00:09;;;;;;;;;;;;;;;10.78;70.63;97055.81;5108032;28;19931;-55
2023/03/13 09:02:37;;;;;;;;;;;;;;;11.02;70.31;97055.94;5097475;28;19924;-54
2023/03/13 09:05:08;;;;;;;;;;;;;;;11.21;69.55;97038.31;5104309;28;19931;-55
2023/03/13 09:07:36;;;;;;;;;;;;;;;11.31;69.16;97048.75;5104928;28;19928;-54
2023/03/13 09:10:04;;;;;;;;;;;;;;;11.46;69.46;97047.31;5109141;28;19931;-55
2023/03/13 09:12:33;;;;;;;;;;;;;;;11.57;68.96;97045.72;5104657;28;20541;-56
2023/03/13 09:15:01;;;;;;;;;;;;;;;11.70;68.67;97049.25;5108359;28;19924;-56
2023/03/13 09:17:29;;;;;;;;;;;;;;;11.85;68.33;97045.09;5112224;28;19931;-55
2023/03/13 09:19:57;;;;;;;;;;;;;;;12.10;68.02;97045.88;5108615;28;19931;-54
2023/03/13 09:22:27;;;;;;;;;;;;;;;12.26;67.49;97044.03;5111932;28;19923;-56
2023/03/13 09:24:55;;;;;;;;;;;;;;;12.40;66.71;97032.75;5105129;28;19928;-57
2023/03/13 09:27:23;;;;;;;;;;;;;;;12.62;65.97;97034.16;5105186;28;20291;-55
2023/03/13 09:29:52;;;;;;;;;;;;;;;12.55;66.76;97030.09;5103246;28;19931;-56
2023/03/13 09:32:21;;;;;;;;;;;;;;;12.54;66.87;97033.19;5107339;28;19923;-56
2023/03/13 09:34:49;;;;;;;;;;;;;;;12.55;66.46;97024.66;5102652;28;20376;-55
2023/03/13 09:37:17;;;;;;;;;;;;;;;12.70;66.38;97028.59;5110431;28;19924;-55
2023/03/13 09:39:45;;;;;;;;;;;;;;;12.76;66.40;97020.97;5097099;28;19923;-54
2023/03/13 09:42:14;;;;;;;;;;;;;;;12.84;66.45;97025.47;5093945;28;19932;-56
2023/03/13 09:44:43;;;;;;;;;;;;;;;12.99;66.53;97019.25;5099976;28;19930;-56
2023/03/13 09:47:13;;;;;;;;;;;;;;;13.01;66.89;97021.66;5102156;28;19927;-55
2023/03/13 09:49:42;;;;;;;;;;;;;;;13.08;66.44;97003.53;5096800;28;20023;-56
2023/03/13 09:52:13;;;;;;;;;;;;;;;13.29;65.87;97008.78;5104391;28;19961;-58
2023/03/13 09:54:42;;;;;;;;;;;;;;;13.68;64.98;97008.97;5090224;28;19959;-56
2023/03/13 09:57:13;;;;;;;;;;;;;;;13.97;64.25;97004.19;5099145;28;19923;-56
2023/03/13 09:59:50;;;;;;;;;;;;;;;13.83;64.13;97004.63;5102946;28;20029;-56
2023/03/13 10:02:22;;;;;;;;;;;;;;;13.91;64.00;97006.41;5102570;28;20300;-57
2023/03/13 10:04:51;;;;;;;;;;;;;;;13.87;64.70;97005.53;5097111;28;19931;-55
2023/03/13 10:07:20;;;;;;;;;;;;;;;13.81;64.22;97006.94;5102270;28;19934;-55
2023/03/13 10:09:48;;;;;;;;;;;;;;;13.66;65.15;97021.38;5099947;28;19942;-55
2023/03/13 10:12:18;;;;;;;;;;;;;;;13.51;65.19;97017.50;5086341;28;19924;-56
2023/03/13 10:14:48;;;;;;;;;;;;;;;13.38;65.57;97016.03;5108636;28;19928;-55
2023/03/13 10:17:22;;;;;;;;;;;;;;;13.39;65.93;97007.47;5104728;28;19924;-55
2023/03/13 10:19:54;;;;;;;;;;;;;;;13.40;65.87;97014.50;5097961;28;19924;-55
2023/03/13 10:22:25;;;;;;;;;;;;;;;13.29;66.26;97011.50;5098457;28;19951;-56
2023/03/13 10:24:54;;;;;;;;;;;;;;;13.27;66.49;97011.09;5106711;28;20162;-56
2023/03/13 10:27:22;;;;;;;;;;;;;;;13.38;65.60;97011.34;5113441;28;19988;-56
2023/03/13 10:29:50;;;;;;;;;;;;;;;13.40;65.51;97011.78;5102982;28;19924;-55
2023/03/13 10:32:19;;;;;;;;;;;;;;;13.23;66.00;97014.84;5104949;28;19924;-56
2023/03/13 10:34:54;;;;;;;;;;;;;;;13.21;66.08;97031.59;5098313;28;19924;-56
2023/03/13 10:37:23;;;;;;;;;;;;;;;13.19;66.32;97030.28;5106617;28;19924;-56
2023/03/13 10:39:51;;;;;;;;;;;;;;;13.19;66.31;97022.13;5093077;28;19924;-56
2023/03/13 10:42:24;;;;;;;;;;;;;;;13.07;66.77;97031.94;5094898;28;19928;-55
2023/03/13 10:44:56;;;;;;;;;;;;;;;13.06;67.21;97035.81;5095750;28;19924;-56
2023/03/13 10:47:24;;;;;;;;;;;;;;;13.01;66.69;97025.16;5102978;28;20652;-55
2023/03/13 10:49:55;;;;;;;;;;;;;;;13.08;66.35;97025.34;5085903;28;19935;-55
2023/03/13 10:52:34;;;;;;;;;;;;;;;13.04;66.79;97021.72;5103347;28;19994;-55
2023/03/13 10:55:03;;;;;;;;;;;;;;;13.06;66.66;97027.66;5100997;28;19977;-55
2023/03/13 10:57:31;;;;;;;;;;;;;;;13.06;66.79;97018.69;5098100;28;19927;-55
2023/03/13 10:59:59;;;;;;;;;;;;;;;13.13;66.32;97026.25;5099805;28;19981;-56
2023/03/13 11:02:34;;;;;;;;;;;;;;;13.04;66.71;97019.00;5077016;28;20369;-55
2023/03/13 11:05:04;;;;;;;;;;;;;;;13.04;67.10;97029.13;5097172;28;19928;-58
2023/03/13 11:07:34;;;;;;;;;;;;;;;13.04;66.77;97024.47;5102420;28;19931;-55
2023/03/13 11:10:03;;;;;;;;;;;;;;;13.02;67.07;97026.75;5096278;28;19928;-56
2023/03/13 11:12:33;;;;;;;;;;;;;;;13.03;66.78;97016.63;5100391;28;19928;-57
2023/03/13 11:15:01;;;;;;;;;;;;;;;13.03;66.87;97022.09;5102844;28;19934;-55
2023/03/13 11:17:30;;;;;;;;;;;;;;;13.11;66.78;97000.13;5089807;28;19931;-56
2023/03/13 11:20:01;;;;;;;;;;;;;;;13.34;66.06;96994.09;5098567;28;19924;-55
2023/03/13 11:22:32;;;;;;;;;;;;;;;13.58;65.00;96999.38;5076359;28;19962;-56
2023/03/13 11:25:02;;;;;;;;;;;;;;;13.62;64.62;96994.78;5087337;28;20415;-55
2023/03/13 11:27:32;;;;;;;;;;;;;;;13.57;64.68;96997.78;5103882;28;20210;-55
2023/03/13 11:30:03;;;;;;;;;;;;;;;13.53;65.02;96991.47;5081667;28;19971;-55
2023/03/13 11:32:33;;;;;;;;;;;;;;;13.66;64.63;96980.44;5096967;28;20344;-56
2023/03/13 11:35:01;;;;;;;;;;;;;;;13.74;64.40;96977.53;5096952;28;19931;-55
2023/03/13 11:37:33;;;;;;;;;;;;;;;13.86;64.15;96971.19;5106184;28;20159;-59
2023/03/13 11:40:05;;;;;;;;;;;;;;;13.88;63.82;96974.34;5096933;28;19924;-55
2023/03/13 11:42:48;;;;;;;;;;;;;;;13.81;63.60;96964.06;5097985;28;19997;-62
2023/03/13 11:45:31;;;;;;;;;;;;;;;13.72;64.00;96960.72;5102575;28;19981;-57
2023/03/13 11:47:59;;;;;;;;;;;;;;;13.72;63.81;96959.91;5102307;28;19924;-59
2023/03/13 11:50:35;;;;;;;;;;;;;;;13.59;64.29;96967.44;5103175;28;19947;-55
2023/03/13 11:53:08;;;;;;;;;;;;;;;13.48;64.31;96966.38;5087813;28;20043;-56
2023/03/13 11:55:48;;;;;;;;;;;;;;;13.46;64.10;96974.91;5095058;28;19978;-56
2023/03/13 11:58:20;;;;;;;;;;;;;;;13.42;64.41;96973.22;5105482;28;19928;-58
2023/03/13 12:00:48;;;;;;;;;;;;;;;13.48;63.95;96985.50;5097665;28;20003;-56
2023/03/13 12:03:16;;;;;;;;;;;;;;;13.45;64.25;96975.25;5095008;28;19935;-55
2023/03/13 12:05:46;;;;;;;;;;;;;;;13.38;64.69;96986.81;5095092;28;19936;-57
2023/03/13 12:08:18;;;;;;;;;;;;;;;13.47;63.99;96978.41;5096448;28;20389;-54
2023/03/13 12:10:46;;;;;;;;;;;;;;;13.52;64.01;96968.03;5086544;28;19932;-56
2023/03/13 12:13:16;;;;;;;;;;;;;;;13.50;64.40;96967.59;5113025;28;19924;-56
2023/03/13 12:15:44;;;;;;;;;;;;;;;13.54;64.26;96962.25;5107372;28;19924;-56
2023/03/13 12:18:14;;;;;;;;;;;;;;;13.54;63.82;96954.06;5103462;28;19928;-56
2023/03/13 12:20:48;;;;;;;;;;;;;;;13.67;64.14;96943.81;5100264;28;20006;-58
2023/03/13 12:23:19;;;;;;;;;;;;;;;13.77;63.54;96938.59;5103195;28;19928;-56
2023/03/13 12:25:49;;;;;;;;;;;;;;;13.82;63.67;96932.88;5101102;28;20311;-56
2023/03/13 12:28:23;;;;;;;;;;;;;;;14.01;62.67;96921.19;5108150;28;20411;-56
2023/03/13 12:30:53;;;;;;;;;;;;;;;14.19;62.05;96918.84;5101329;28;20364;-59
2023/03/13 12:33:24;;;;;;;;;;;;;;;14.31;61.60;96913.22;5096584;28;19974;-56
2023/03/13 12:35:53;;;;;;;;;;;;;;;14.62;60.60;96909.56;5105816;28;19924;-63
2023/03/13 12:38:23;;;;;;;;;;;;;;;15.06;60.06;96897.44;5107538;28;20033;-58
2023/03/13 12:40:51;;;;;;;;;;;;;;;15.53;58.37;96891.56;5115958;28;19924;-57
2023/03/13 12:43:19;;;;;;;;;;;;;;;15.70;57.16;96882.84;5105071;28;19936;-57
2023/03/13 12:45:51;;;;;;;;;;;;;;;15.69;57.19;96884.00;5108976;28;19930;-56
2023/03/13 12:48:25;;;;;;;;;;;;;;;15.65;56.98;96879.63;5090139;28;20328;-55
2023/03/13 12:50:57;;;;;;;;;;;;;;;15.63;56.55;96863.59;5109765;28;19928;-56
2023/03/13 12:53:30;;;;;;;;;;;;;;;15.70;56.42;96860.94;5100288;28;19924;-57
2023/03/13 12:56:19;;;;;;;;;;;;;;;15.66;56.60;96845.63;5106150;28;20282;-54
2023/03/13 12:58:48;;;;;;;;;;;;;;;15.40;57.18;96841.72;5109781;28;19928;-56
2023/03/13 13:01:17;;;;;;;;;;;;;;;15.62;56.62;96823.66;5092541;28;20297;-62
2023/03/13 13:03:49;;;;;;;;;;;;;;;15.64;56.24;96821.34;5087740;28;19968;-57
2023/03/13 13:06:17;;;;;;;;;;;;;;;15.46;57.24;96814.81;5103947;28;19928;-57
2023/03/13 13:08:47;;;;;;;;;;;;;;;15.28;57.55;96821.97;5102858;28;19932;-57
2023/03/13 13:11:34;;;;;;;;;;;;;;;15.36;57.80;96820.94;5083448;28;19989;-55
2023/03/13 13:14:02;;;;;;;;;;;;;;;15.52;56.90;96807.06;5108767;28;19924;-56
2023/03/13 13:16:30;;;;;;;;;;;;;;;15.45;57.17;96802.31;5081446;28;19963;-55